createdAt,value
2023-02-22T20:26:55.630Z,11.50
2023-02-22T20:29:29.368Z,11.50
2023-02-22T20:32:02.155Z,11.46
2023-02-22T20:34:32.356Z,11.42
2023-02-22T20:37:00.591Z,11.38
2023-02-22T20:39:27.816Z,11.39
2023-02-22T20:41:54.773Z,11.40
2023-02-22T20:44:22.182Z,11.42
2023-02-22T20:46:49.289Z,11.44
2023-02-22T20:49:19.340Z,11.44
2023-02-22T20:51:48.212Z,11.43
2023-02-22T20:54:16.929Z,11.43
2023-02-22T20:56:46.125Z,11.46
2023-02-22T20:59:16.302Z,11.45
2023-02-22T21:01:43.784Z,11.47
2023-02-22T21:04:11.443Z,11.45
2023-02-22T21:06:42.619Z,11.47
2023-02-22T21:09:16.253Z,11.50
2023-02-22T21:11:43.628Z,11.55
2023-02-22T21:14:16.673Z,11.56
2023-02-22T21:16:46.551Z,11.57
2023-02-22T21:19:27.727Z,11.57
2023-02-22T21:21:59.685Z,11.48
2023-02-22T21:24:28.976Z,11.49
2023-02-22T21:26:59.040Z,11.52
2023-02-22T21:29:27.548Z,11.51
2023-02-22T21:31:54.793Z,11.52
2023-02-22T21:34:22.349Z,11.53
2023-02-22T21:36:50.465Z,11.53
2023-02-22T21:39:18.050Z,11.57
2023-02-22T21:41:52.075Z,11.57
2023-02-22T21:44:21.535Z,11.59
2023-02-22T21:46:49.630Z,11.62
2023-02-22T21:49:17.889Z,11.67
2023-02-22T21:51:44.905Z,11.71
2023-02-22T21:54:13.092Z,11.72
2023-02-22T21:56:42.545Z,11.74
2023-02-22T21:59:18.837Z,11.74
2023-02-22T22:01:50.773Z,11.71
2023-02-22T22:04:21.675Z,11.68
2023-02-22T22:06:51.594Z,11.61
2023-02-22T22:09:19.812Z,11.56
2023-02-22T22:11:53.283Z,11.51
2023-02-22T22:14:23.136Z,11.46
2023-02-22T22:16:58.178Z,11.44
2023-02-22T22:19:29.062Z,11.41
2023-02-22T22:21:57.172Z,11.42
2023-02-22T22:24:25.619Z,11.45
2023-02-22T22:26:55.553Z,11.47
2023-02-22T22:29:24.582Z,11.46
2023-02-22T22:31:52.326Z,11.45
2023-02-22T22:34:19.498Z,11.43
2023-02-22T22:36:46.894Z,11.39
2023-02-22T22:39:13.992Z,11.32
2023-02-22T22:41:45.379Z,11.27
2023-02-22T22:44:15.245Z,11.25
2023-02-22T22:46:43.871Z,11.24
2023-02-22T22:49:13.280Z,11.23
2023-02-22T22:51:41.150Z,11.19
2023-02-22T22:54:09.831Z,11.19
2023-02-22T22:56:38.720Z,11.20
2023-02-22T22:59:09.543Z,11.26
2023-02-22T23:01:44.537Z,11.29
2023-02-22T23:04:16.226Z,11.32
2023-02-22T23:06:52.069Z,11.35
2023-02-22T23:09:25.656Z,11.33
2023-02-22T23:12:08.837Z,11.33
2023-02-22T23:14:39.448Z,11.31
2023-02-22T23:17:14.020Z,11.24
2023-02-22T23:19:42.866Z,11.20
2023-02-22T23:22:09.716Z,11.18
2023-02-22T23:24:37.237Z,11.15
2023-02-22T23:27:10.609Z,11.15
2023-02-22T23:29:40.442Z,11.13
2023-02-22T23:32:08.012Z,11.12
2023-02-22T23:34:36.391Z,11.05
2023-02-22T23:37:03.751Z,10.99
2023-02-22T23:39:30.633Z,10.97
2023-02-22T23:42:03.169Z,10.94
2023-02-22T23:44:30.134Z,10.94
2023-02-22T23:46:57.157Z,10.91
2023-02-22T23:49:27.428Z,10.88
2023-02-22T23:51:54.696Z,10.84
2023-02-22T23:54:24.372Z,10.84
2023-02-22T23:56:57.761Z,10.84
2023-02-22T23:59:26.887Z,10.88
